BEL4AH EBBR-EGLL
Flight info
| Callsign | BEL4AH |
|---|---|
| Flight time | N/A |
| Altitude | 24000 |
| Route | HELEN L179 COA L608 LOGAN |
| Aircraft | A319/M-DE3FGIJ1LORVWY/HB1 |
Departure
| Time | N/A |
|---|---|
| Airport | Brussels Airport (EBBR) |
Arrival
| Time | 2026-04-29 16:52 |
|---|---|
| Airport | London Heathrow Airport (EGLL) |
| Time | Latitude | Longitude | Altitude | Speed | Heading |
|---|---|---|---|---|---|
| 2026-04-29 16:20 | 51.45531 | 2.90083 | 24261 ft | 415 kts | 292° |
| 2026-04-29 16:21 | 51.46539 | 2.85746 | 24259 ft | 415 kts | 292° |
| 2026-04-29 16:21 | 51.47549 | 2.81408 | 24258 ft | 415 kts | 292° |
| 2026-04-29 16:21 | 51.48558 | 2.77062 | 24255 ft | 416 kts | 292° |
| 2026-04-29 16:21 | 51.49488 | 2.72666 | 24255 ft | 417 kts | 285° |
| 2026-04-29 16:22 | 51.50069 | 2.68169 | 24257 ft | 418 kts | 282° |
| 2026-04-29 16:22 | 51.50643 | 2.63603 | 24257 ft | 417 kts | 282° |
| 2026-04-29 16:22 | 51.51214 | 2.59033 | 24258 ft | 418 kts | 282° |
| 2026-04-29 16:22 | 51.51783 | 2.54457 | 24259 ft | 418 kts | 282° |
| 2026-04-29 16:23 | 51.52350 | 2.49882 | 24258 ft | 418 kts | 282° |
| 2026-04-29 16:23 | 51.52914 | 2.45310 | 24259 ft | 418 kts | 282° |
| 2026-04-29 16:23 | 51.53477 | 2.40735 | 24257 ft | 417 kts | 282° |
| 2026-04-29 16:23 | 51.54035 | 2.36159 | 24255 ft | 418 kts | 282° |
| 2026-04-29 16:24 | 51.54593 | 2.31570 | 24257 ft | 418 kts | 282° |
| 2026-04-29 16:24 | 51.55148 | 2.26990 | 24260 ft | 419 kts | 282° |
| 2026-04-29 16:24 | 51.55706 | 2.22394 | 24261 ft | 419 kts | 282° |
| 2026-04-29 16:24 | 51.56253 | 2.17865 | 24259 ft | 419 kts | 282° |
| 2026-04-29 16:25 | 51.56813 | 2.13214 | 24259 ft | 418 kts | 282° |
| 2026-04-29 16:25 | 51.57357 | 2.08681 | 24259 ft | 418 kts | 282° |
| 2026-04-29 16:25 | 51.57907 | 2.04089 | 24257 ft | 418 kts | 282° |
| 2026-04-29 16:25 | 51.58456 | 1.99490 | 24258 ft | 418 kts | 282° |
| 2026-04-29 16:26 | 51.59002 | 1.94899 | 24258 ft | 418 kts | 281° |
| 2026-04-29 16:26 | 51.59536 | 1.90380 | 24260 ft | 418 kts | 281° |
| 2026-04-29 16:26 | 51.60076 | 1.85784 | 24262 ft | 418 kts | 281° |
| 2026-04-29 16:26 | 51.60615 | 1.81191 | 24265 ft | 418 kts | 281° |
| 2026-04-29 16:27 | 51.61152 | 1.76594 | 24265 ft | 418 kts | 281° |
| 2026-04-29 16:27 | 51.61687 | 1.71999 | 24267 ft | 418 kts | 281° |
| 2026-04-29 16:27 | 51.62213 | 1.67493 | 24036 ft | 412 kts | 281° |
| 2026-04-29 16:27 | 51.62736 | 1.62990 | 23786 ft | 408 kts | 281° |
| 2026-04-29 16:28 | 51.63252 | 1.58513 | 23532 ft | 406 kts | 281° |
| 2026-04-29 16:28 | 51.63759 | 1.54078 | 23137 ft | 401 kts | 281° |
| 2026-04-29 16:28 | 51.64263 | 1.49669 | 22640 ft | 399 kts | 281° |
| 2026-04-29 16:28 | 51.64749 | 1.45420 | 22161 ft | 397 kts | 281° |
| 2026-04-29 16:29 | 51.65253 | 1.40998 | 21657 ft | 396 kts | 281° |
| 2026-04-29 16:29 | 51.65748 | 1.36655 | 21165 ft | 394 kts | 281° |
| 2026-04-29 16:29 | 51.66240 | 1.32313 | 20650 ft | 392 kts | 281° |
| 2026-04-29 16:29 | 51.66719 | 1.28058 | 20152 ft | 390 kts | 281° |
| 2026-04-29 16:30 | 51.67199 | 1.23762 | 19644 ft | 388 kts | 281° |
| 2026-04-29 16:30 | 51.67675 | 1.19492 | 19139 ft | 387 kts | 281° |
| 2026-04-29 16:30 | 51.68146 | 1.15246 | 18649 ft | 384 kts | 281° |
| 2026-04-29 16:30 | 51.68610 | 1.11049 | 18158 ft | 382 kts | 281° |
| 2026-04-29 16:31 | 51.69072 | 1.06845 | 17670 ft | 380 kts | 281° |
| 2026-04-29 16:31 | 51.69530 | 1.02670 | 17181 ft | 377 kts | 281° |
| 2026-04-29 16:31 | 51.69987 | 0.98514 | 16698 ft | 375 kts | 281° |
| 2026-04-29 16:31 | 51.70251 | 0.94348 | 16225 ft | 373 kts | 270° |
| 2026-04-29 16:32 | 51.70058 | 0.90176 | 15670 ft | 374 kts | 263° |
| 2026-04-29 16:32 | 51.69765 | 0.86070 | 15127 ft | 374 kts | 263° |
| 2026-04-29 16:32 | 51.69542 | 0.82929 | 14721 ft | 374 kts | 263° |
| 2026-04-29 16:32 | 51.69249 | 0.78792 | 14179 ft | 373 kts | 263° |
| 2026-04-29 16:33 | 51.68665 | 0.70499 | 13093 ft | 372 kts | 263° |
| 2026-04-29 16:33 | 51.68376 | 0.66362 | 12554 ft | 370 kts | 263° |
| 2026-04-29 16:33 | 51.68089 | 0.62289 | 12068 ft | 367 kts | 262° |
| 2026-04-29 16:34 | 51.67797 | 0.58236 | 11772 ft | 358 kts | 262° |
| 2026-04-29 16:34 | 51.67521 | 0.54462 | 11650 ft | 346 kts | 262° |
| 2026-04-29 16:34 | 51.67243 | 0.50674 | 11524 ft | 335 kts | 262° |
| 2026-04-29 16:34 | 51.66979 | 0.47057 | 11308 ft | 327 kts | 262° |
| 2026-04-29 16:35 | 51.66714 | 0.43439 | 10962 ft | 323 kts | 262° |
| 2026-04-29 16:35 | 51.66450 | 0.39852 | 10585 ft | 322 kts | 262° |
| 2026-04-29 16:35 | 51.66186 | 0.36271 | 10214 ft | 320 kts | 262° |
| 2026-04-29 16:35 | 51.65924 | 0.32725 | 9822 ft | 318 kts | 262° |
| 2026-04-29 16:36 | 51.65666 | 0.29268 | 9433 ft | 316 kts | 262° |
| 2026-04-29 16:36 | 51.65402 | 0.25764 | 9036 ft | 315 kts | 262° |
| 2026-04-29 16:36 | 51.65141 | 0.22282 | 8731 ft | 310 kts | 262° |
| 2026-04-29 16:36 | 51.64994 | 0.18834 | 8386 ft | 308 kts | 266° |
| 2026-04-29 16:37 | 51.64900 | 0.15447 | 8283 ft | 307 kts | 266° |
| 2026-04-29 16:37 | 51.64808 | 0.12013 | 8283 ft | 308 kts | 266° |
| 2026-04-29 16:37 | 51.64715 | 0.08570 | 8284 ft | 308 kts | 266° |
| 2026-04-29 16:37 | 51.64650 | 0.06242 | 8282 ft | 309 kts | 266° |
| 2026-04-29 16:38 | 51.64523 | 0.01668 | 8292 ft | 308 kts | 266° |
| 2026-04-29 16:38 | 51.64427 | -0.01776 | 8286 ft | 309 kts | 266° |
| 2026-04-29 16:38 | 51.64335 | -0.05241 | 8275 ft | 311 kts | 266° |
| 2026-04-29 16:38 | 51.64246 | -0.08725 | 8276 ft | 312 kts | 266° |
| 2026-04-29 16:39 | 51.64156 | -0.12213 | 8272 ft | 312 kts | 266° |
| 2026-04-29 16:39 | 51.64067 | -0.15704 | 8272 ft | 312 kts | 266° |
| 2026-04-29 16:39 | 51.63982 | -0.19184 | 8275 ft | 312 kts | 266° |
| 2026-04-29 16:39 | 51.63896 | -0.22673 | 8271 ft | 312 kts | 266° |
| 2026-04-29 16:40 | 51.63807 | -0.26109 | 8265 ft | 312 kts | 266° |
| 2026-04-29 16:40 | 51.63717 | -0.29506 | 8266 ft | 312 kts | 266° |
| 2026-04-29 16:40 | 51.63627 | -0.32990 | 8265 ft | 311 kts | 266° |
| 2026-04-29 16:40 | 51.63539 | -0.36470 | 8257 ft | 311 kts | 266° |
| 2026-04-29 16:41 | 51.63447 | -0.39953 | 8259 ft | 312 kts | 266° |
| 2026-04-29 16:41 | 51.63355 | -0.43440 | 8255 ft | 312 kts | 266° |
| 2026-04-29 16:41 | 51.63263 | -0.46931 | 8256 ft | 312 kts | 266° |
| 2026-04-29 16:41 | 51.63171 | -0.50422 | 8260 ft | 313 kts | 266° |
| 2026-04-29 16:42 | 51.63081 | -0.53750 | 8260 ft | 312 kts | 266° |
| 2026-04-29 16:42 | 51.62984 | -0.57236 | 8258 ft | 312 kts | 266° |
| 2026-04-29 16:42 | 51.62886 | -0.60723 | 8262 ft | 311 kts | 266° |
| 2026-04-29 16:42 | 51.62500 | -0.64114 | 8233 ft | 307 kts | 246° |
| 2026-04-29 16:43 | 51.61658 | -0.67246 | 7858 ft | 304 kts | 241° |
| 2026-04-29 16:43 | 51.60766 | -0.70319 | 7440 ft | 303 kts | 241° |
| 2026-04-29 16:43 | 51.59876 | -0.73374 | 7032 ft | 301 kts | 241° |
| 2026-04-29 16:43 | 51.59072 | -0.76144 | 6660 ft | 300 kts | 241° |
| 2026-04-29 16:44 | 51.58223 | -0.79093 | 6246 ft | 299 kts | 241° |
| 2026-04-29 16:44 | 51.57134 | -0.81858 | 5866 ft | 285 kts | 218° |
| 2026-04-29 16:44 | 51.55568 | -0.83409 | 5733 ft | 256 kts | 189° |
| 2026-04-29 16:44 | 51.53911 | -0.84003 | 5608 ft | 235 kts | 182° |
| 2026-04-29 16:45 | 51.52350 | -0.84443 | 5489 ft | 221 kts | 181° |
| 2026-04-29 16:45 | 51.50887 | -0.84863 | 5370 ft | 206 kts | 181° |
| 2026-04-29 16:45 | 51.49518 | -0.85271 | 5223 ft | 195 kts | 179° |
| 2026-04-29 16:45 | 51.48264 | -0.85056 | 4914 ft | 174 kts | 142° |
| 2026-04-29 16:46 | 51.47528 | -0.83705 | 4531 ft | 160 kts | 98° |
| 2026-04-29 16:46 | 51.47618 | -0.81942 | 4206 ft | 160 kts | 82° |
| 2026-04-29 16:46 | 51.47613 | -0.80190 | 3952 ft | 155 kts | 90° |
| 2026-04-29 16:46 | 51.47603 | -0.78496 | 3746 ft | 151 kts | 89° |
| 2026-04-29 16:47 | 51.47605 | -0.76853 | 3535 ft | 147 kts | 89° |
| 2026-04-29 16:47 | 51.47611 | -0.75244 | 3332 ft | 142 kts | 89° |
| 2026-04-29 16:47 | 51.47619 | -0.73689 | 3158 ft | 138 kts | 89° |
| 2026-04-29 16:47 | 51.47628 | -0.72171 | 2954 ft | 135 kts | 88° |
| 2026-04-29 16:48 | 51.47637 | -0.70675 | 2794 ft | 134 kts | 87° |
| 2026-04-29 16:48 | 51.47645 | -0.69176 | 2621 ft | 135 kts | 88° |
| 2026-04-29 16:48 | 51.47655 | -0.67666 | 2446 ft | 136 kts | 86° |
| 2026-04-29 16:48 | 51.47663 | -0.66147 | 2259 ft | 137 kts | 86° |
| 2026-04-29 16:49 | 51.47672 | -0.64596 | 2063 ft | 140 kts | 87° |
| 2026-04-29 16:49 | 51.47681 | -0.63045 | 1872 ft | 142 kts | 86° |
| 2026-04-29 16:49 | 51.47689 | -0.61461 | 1683 ft | 142 kts | 86° |
| 2026-04-29 16:49 | 51.47695 | -0.59927 | 1477 ft | 133 kts | 87° |
| 2026-04-29 16:50 | 51.47702 | -0.58479 | 1325 ft | 126 kts | 86° |
| 2026-04-29 16:50 | 51.47700 | -0.57082 | 1141 ft | 123 kts | 86° |
| 2026-04-29 16:50 | 51.47713 | -0.55716 | 991 ft | 123 kts | 85° |
| 2026-04-29 16:50 | 51.47733 | -0.54349 | 840 ft | 123 kts | 86° |
| 2026-04-29 16:51 | 51.47744 | -0.52983 | 680 ft | 123 kts | 86° |
| 2026-04-29 16:51 | 51.47743 | -0.51613 | 482 ft | 123 kts | 87° |
| 2026-04-29 16:51 | 51.47749 | -0.50230 | 336 ft | 124 kts | 89° |
| 2026-04-29 16:51 | 51.47753 | -0.48847 | 172 ft | 124 kts | 87° |
| 2026-04-29 16:52 | 51.47759 | -0.47517 | 87 ft | 113 kts | 89° |
| 2026-04-29 16:52 | 51.47758 | -0.46517 | 90 ft | 65 kts | 89° |
| 2026-04-29 16:52 | 51.47760 | -0.45977 | 85 ft | 43 kts | 91° |
| 2026-04-29 16:52 | 51.47760 | -0.45583 | 86 ft | 21 kts | 92° |
| 2026-04-29 16:53 | 51.47692 | -0.45468 | 86 ft | 12 kts | 175° |
| 2026-04-29 16:53 | 51.47607 | -0.45467 | 86 ft | 12 kts | 179° |
| 2026-04-29 16:53 | 51.47558 | -0.45466 | 86 ft | 0 kts | 179° |
| 2026-04-29 16:53 | 51.47547 | -0.45466 | 86 ft | 0 kts | 179° |
| 2026-04-29 16:54 | 51.47543 | -0.45466 | 86 ft | 2 kts | 178° |
| 2026-04-29 16:54 | 51.47518 | -0.45449 | 90 ft | 6 kts | 142° |
| 2026-04-29 16:54 | 51.47509 | -0.45373 | 90 ft | 9 kts | 90° |
| 2026-04-29 16:54 | 51.47508 | -0.45269 | 88 ft | 10 kts | 90° |
| 2026-04-29 16:55 | 51.47509 | -0.45148 | 89 ft | 12 kts | 89° |
| 2026-04-29 16:55 | 51.47510 | -0.45011 | 90 ft | 13 kts | 90° |
| 2026-04-29 16:55 | 51.47510 | -0.44859 | 89 ft | 14 kts | 90° |
| 2026-04-29 16:55 | 51.47511 | -0.44705 | 90 ft | 12 kts | 90° |
| 2026-04-29 16:56 | 51.47489 | -0.44575 | 89 ft | 11 kts | 135° |
| 2026-04-29 16:56 | 51.47408 | -0.44560 | 90 ft | 13 kts | 180° |
| 2026-04-29 16:56 | 51.47313 | -0.44560 | 86 ft | 14 kts | 180° |
| 2026-04-29 16:56 | 51.47216 | -0.44558 | 86 ft | 14 kts | 179° |
| 2026-04-29 16:57 | 51.47120 | -0.44557 | 86 ft | 14 kts | 179° |
| 2026-04-29 16:57 | 51.47020 | -0.44556 | 86 ft | 15 kts | 179° |
| 2026-04-29 16:57 | 51.46930 | -0.44556 | 86 ft | 12 kts | 180° |
| 2026-04-29 16:57 | 51.46855 | -0.44555 | 88 ft | 10 kts | 180° |
| 2026-04-29 16:58 | 51.46820 | -0.44583 | 86 ft | 5 kts | 263° |
| 2026-04-29 16:58 | 51.46821 | -0.44628 | 90 ft | 4 kts | 268° |
| 2026-04-29 16:58 | 51.46820 | -0.44663 | 89 ft | 3 kts | 266° |
| 2026-04-29 16:58 | 51.46820 | -0.44681 | 86 ft | 1 kts | 267° |
| 2026-04-29 16:59 | 51.46820 | -0.44682 | 86 ft | 0 kts | 267° |